Main page
METAR-TAF:

METAR-TAF

Airports :

Biggs Army Airfield

Fort Bliss, Texas, United States

latitude: 31-50-58N, longitude: 106-22-48W, elevation: 3946 ft

Current weather observation

The report was made 1 hour and 2 minutes ago, at 01:58 UTC
Calm wind
Temperature 48°F
Humidity 29%
Pressure 30.32 in. Hg
Visibility: 7 miles
Few clouds at a height of 24000 ft

METAR: KBIF 150158Z AUTO 00000KT 7SM FEW240 09/M08 A3032 RMK AO2 SLP264 T00931080 $

Time: 20:00 (03:00 UTC)

Forecast

The report was made 4 hours and 58 minutes ago, at 22:02 UTC
Forecast valid from 14 at 22 UTC to 16 at 04 UTC
Wind 7 mph from variable directions
Visibility 6.2 miles or more
Few clouds at a height of 25000 ft

TAF: KBIF 142202Z 1422/1604 VRB06KT 9999 FEW250 QNH3016INS TX12/1422Z TNM05/1514Z

Weather observations and forecasts of more than 4000 airports (METAR and TAF reports).

The available stations are represented by yellow and red dots on the map.

Hover mouse over dot to see the name of the station.

Then click to see weather observations and forecasts.

To change the map : click on the green buttons with a black cross to zoom in, on the green button with a dash to zoom out, or on the green arrows for adjacent maps.


METAR-TAF: